Time;durP1;ratioP1;P1;durP2;ratioP2;P2;SDS_P1;SDS_P2;PMS_P1;PMS_P2;Temp;Humidity;BMP_temperature;BMP_pressure;BME280_temperature;BME280_humidity;BME280_pressure;Samples;Min_cycle;Max_cycle;Signal;HPM_P1;HPM_P2
2022/12/27 00:01:47;;;;;;;6.10;1.50;;;;;;;3.11;86.80;101129.91;105563;1291;59794;-77
2022/12/27 00:04:14;;;;;;;6.10;1.90;;;;;;;3.11;86.87;101133.75;105483;1294;59048;-76
2022/12/27 00:06:40;;;;;;;6.30;1.50;;;;;;;3.11;86.23;101132.52;105517;1294;59460;-76
2022/12/27 00:09:07;;;;;;;6.10;1.70;;;;;;;3.13;86.16;101136.77;105735;1282;58658;-77
2022/12/27 00:11:34;;;;;;;12.70;5.20;;;;;;;3.14;85.94;101142.81;105510;1285;60170;-77
2022/12/27 00:14:03;;;;;;;8.40;1.50;;;;;;;3.14;85.96;101143.31;105600;1293;74217;-76
2022/12/27 00:16:30;;;;;;;6.60;1.70;;;;;;;3.14;86.06;101149.73;105658;1287;69562;-77
2022/12/27 00:18:57;;;;;;;7.00;1.40;;;;;;;3.14;85.70;101148.20;105563;1294;72911;-77
2022/12/27 00:21:23;;;;;;;7.30;1.90;;;;;;;3.12;85.86;101157.96;105616;1292;58997;-77
2022/12/27 00:23:53;;;;;;;5.70;1.60;;;;;;;3.13;85.93;101153.89;105655;1287;59317;-77
2022/12/27 00:26:22;;;;;;;6.40;1.80;;;;;;;3.12;85.41;101156.02;105598;1291;74465;-77
2022/12/27 00:28:49;;;;;;;6.80;1.80;;;;;;;3.11;85.73;101154.73;105538;1286;69816;-77
2022/12/27 00:31:17;;;;;;;6.70;1.60;;;;;;;3.12;85.32;101157.94;105550;1294;71662;-77
2022/12/27 00:33:45;;;;;;;8.70;2.40;;;;;;;3.13;85.37;101162.83;105622;1293;59981;-77
2022/12/27 00:36:16;;;;;;;4.50;1.70;;;;;;;3.13;85.33;101166.30;105570;1288;58934;-76
2022/12/27 00:38:43;;;;;;;6.00;2.00;;;;;;;3.16;84.96;101166.77;105556;1290;72726;-77
2022/12/27 00:41:10;;;;;;;7.20;2.40;;;;;;;3.15;85.30;101165.10;105647;1285;69605;-77
2022/12/27 00:43:37;;;;;;;7.00;2.80;;;;;;;3.15;85.07;101167.72;105517;1286;71148;-77
2022/12/27 00:46:04;;;;;;;10.30;5.50;;;;;;;3.15;85.01;101169.30;105669;1286;59024;-77
2022/12/27 00:48:31;;;;;;;18.90;12.50;;;;;;;3.15;85.03;101169.05;105562;1287;59890;-76
2022/12/27 00:51:04;;;;;;;11.20;6.90;;;;;;;3.16;85.13;101171.98;105637;1294;73086;-77
2022/12/27 00:53:32;;;;;;;28.90;21.60;;;;;;;3.19;84.69;101173.84;105574;1293;71670;-77
2022/12/27 00:55:58;;;;;;;13.50;8.50;;;;;;;3.22;84.52;101175.39;105547;1294;70719;-76
2022/12/27 00:58:25;;;;;;;6.70;2.70;;;;;;;3.26;84.61;101179.80;105772;1285;61099;-77
2022/12/27 01:00:52;;;;;;;5.10;1.60;;;;;;;3.31;84.35;101185.41;105749;1283;59132;-76
2022/12/27 01:03:19;;;;;;;7.50;1.80;;;;;;;3.36;84.14;101190.76;105636;1287;75707;-77
2022/12/27 01:05:45;;;;;;;5.60;1.50;;;;;;;3.42;83.91;101189.77;105579;1294;71026;-77
2022/12/27 01:08:12;;;;;;;7.70;1.80;;;;;;;3.47;83.75;101185.42;105622;1294;59078;-77
2022/12/27 01:10:40;;;;;;;6.80;2.00;;;;;;;3.50;83.87;101188.85;105804;1291;58922;-76
2022/12/27 01:13:06;;;;;;;7.60;2.20;;;;;;;3.53;84.21;101190.22;105540;1296;61778;-77
2022/12/27 01:15:33;;;;;;;6.30;2.00;;;;;;;3.53;84.01;101196.17;105558;1283;74804;-77
2022/12/27 01:17:59;;;;;;;7.70;2.30;;;;;;;3.55;84.36;101207.36;105765;1291;59836;-77
2022/12/27 01:20:26;;;;;;;6.20;1.40;;;;;;;3.53;84.63;101222.67;105698;1291;59088;-76
2022/12/27 01:22:53;;;;;;;6.20;1.80;;;;;;;3.55;85.07;101223.41;105678;1290;59176;-77
2022/12/27 01:25:19;;;;;;;8.40;2.20;;;;;;;3.56;84.99;101223.52;105622;1284;58530;-77
2022/12/27 01:27:46;;;;;;;6.80;1.90;;;;;;;3.57;85.08;101220.69;105796;1284;73553;-78
2022/12/27 01:30:12;;;;;;;11.00;4.00;;;;;;;3.55;84.92;101233.21;105661;1291;59183;-77
2022/12/27 01:32:39;;;;;;;10.20;3.00;;;;;;;3.53;84.79;101229.39;105801;1290;58998;-77
2022/12/27 01:35:06;;;;;;;8.50;2.70;;;;;;;3.52;84.91;101223.14;105735;1284;59469;-77
2022/12/27 01:37:32;;;;;;;8.70;3.10;;;;;;;3.47;84.72;101223.31;105797;1291;59042;-77
2022/12/27 01:39:59;;;;;;;8.50;3.40;;;;;;;3.43;84.91;101221.02;105544;1287;59729;-76
2022/12/27 01:45:22;;;;;;;11.80;4.10;;;;;;;3.26;85.28;101221.57;105678;1291;72846;-77
2022/12/27 01:47:51;;;;;;;13.20;3.50;;;;;;;3.21;85.67;101221.56;105653;1287;60015;-77
2022/12/27 01:50:35;;;;;;;10.30;3.50;;;;;;;3.15;85.95;101225.35;105788;1291;59885;-77
2022/12/27 01:53:14;;;;;;;11.00;3.80;;;;;;;3.09;86.24;101219.70;105624;1295;74532;-77
2022/12/27 01:55:47;;;;;;;11.80;4.00;;;;;;;3.04;86.20;101226.19;105622;1293;71764;-77
2022/12/27 01:59:09;;;;;;;10.30;4.00;;;;;;;2.98;86.25;101227.83;105540;1288;74524;-77
2022/12/27 02:01:41;;;;;;;9.30;4.00;;;;;;;2.93;86.67;101228.27;105064;1293;58919;-78
2022/12/27 02:04:12;;;;;;;11.30;4.00;;;;;;;2.90;86.80;101227.23;105424;1292;60607;-77
2022/12/27 02:06:40;;;;;;;10.00;3.80;;;;;;;2.84;86.99;101227.65;105619;1291;73172;-77
2022/12/27 02:09:25;;;;;;;13.70;5.10;;;;;;;2.82;87.18;101230.56;105532;1288;70333;-77
2022/12/27 02:11:55;;;;;;;11.20;4.80;;;;;;;2.80;87.11;101239.25;105680;1287;72447;-77
2022/12/27 02:14:28;;;;;;;10.80;4.30;;;;;;;2.79;87.72;101242.45;105783;1291;61144;-77
2022/12/27 02:17:00;;;;;;;16.80;6.40;;;;;;;2.81;87.65;101242.16;105783;1283;59388;-77
2022/12/27 02:19:39;;;;;;;48.90;29.50;;;;;;;2.87;87.79;101245.27;105574;1284;73350;-77
2022/12/27 02:25:34;;;;;;;69.90;31.80;;;;;;;3.00;87.22;101252.01;105796;1291;71139;-77
2022/12/27 02:28:48;;;;;;;95.70;35.80;;;;;;;3.05;87.10;101258.63;105815;1291;59992;-77
2022/12/27 02:31:28;;;;;;;100.40;23.50;;;;;;;3.10;86.91;101252.12;105286;1291;60456;-78
2022/12/27 02:33:57;;;;;;;256.00;72.30;;;;;;;3.12;87.03;101254.38;105647;1291;73283;-77
2022/12/27 02:36:30;;;;;;;188.20;50.10;;;;;;;3.15;86.66;101257.88;105753;1292;71603;-77
2022/12/27 02:39:00;;;;;;;144.60;44.30;;;;;;;3.15;86.84;101252.81;105530;1287;72876;-76
2022/12/27 02:53:03;;;;;;;150.00;96.40;;;;;;;3.09;87.43;101249.23;105794;1285;71400;-76
2022/12/27 02:55:39;;;;;;;125.00;74.40;;;;;;;3.10;87.30;101246.03;105564;1286;62581;-77
2022/12/27 02:58:19;;;;;;;75.20;47.90;;;;;;;3.10;87.36;101255.45;105585;1287;59095;-77
2022/12/27 03:04:04;;;;;;;57.30;34.90;;;;;;;3.13;87.12;101253.52;105552;1291;71273;-77
2022/12/27 03:06:51;;;;;;;42.80;25.30;;;;;;;3.12;87.34;101250.05;105736;1284;71455;-81
2022/12/27 03:15:54;;;;;;;13.80;8.60;;;;;;;3.12;87.34;101244.45;105648;1284;73120;-77
2022/12/27 03:18:34;;;;;;;17.40;10.70;;;;;;;3.12;87.43;101252.36;105622;1290;71574;-77
2022/12/27 03:26:41;;;;;;;19.80;11.20;;;;;;;3.12;87.53;101240.27;105601;1290;60549;-76
2022/12/27 03:35:18;;;;;;;53.60;29.20;;;;;;;3.15;87.32;101248.77;105542;1292;71163;-77
2022/12/27 03:38:03;;;;;;;66.90;29.90;;;;;;;3.14;87.43;101248.65;105586;1294;60489;-77
2022/12/27 03:43:35;;;;;;;61.00;23.50;;;;;;;3.11;87.52;101255.36;105600;1288;73136;-77
2022/12/27 03:46:33;;;;;;;48.60;19.70;;;;;;;3.13;87.71;101256.94;105710;1291;70871;-77
2022/12/27 03:49:31;;;;;;;38.50;15.20;;;;;;;3.14;87.84;101251.98;105777;1291;71444;-77
2022/12/27 03:52:05;;;;;;;51.50;25.10;;;;;;;3.15;87.85;101254.35;105604;1293;59823;-77
2022/12/27 03:54:40;;;;;;;21.50;8.60;;;;;;;3.15;87.68;101250.73;105717;1291;58939;-77
2022/12/27 03:57:16;;;;;;;11.40;4.80;;;;;;;3.15;87.74;101246.02;105687;1285;72664;-77
2022/12/27 03:59:43;;;;;;;13.00;6.50;;;;;;;3.15;87.79;101252.66;105720;1284;71132;-77
2022/12/27 04:02:10;;;;;;;14.00;7.10;;;;;;;3.15;88.04;101256.67;105624;1287;72602;-77
2022/12/27 04:04:37;;;;;;;10.00;3.60;;;;;;;3.15;88.14;101255.77;105618;1287;59395;-77
2022/12/27 04:07:04;;;;;;;10.30;3.10;;;;;;;3.17;88.19;101258.96;105665;1287;61058;-77
2022/12/27 04:37:02;;;;;;;11.00;4.00;;;;;;;3.54;87.95;101264.40;105663;1291;73189;-77
2022/12/27 04:39:29;;;;;;;20.00;12.70;;;;;;;3.58;88.09;101257.48;105825;1291;71090;-76
2022/12/27 04:56:02;;;;;;;17.50;12.90;;;;;;;3.90;87.37;101268.88;105588;1292;72661;-77
2022/12/27 04:58:29;;;;;;;9.90;4.80;;;;;;;3.94;87.28;101263.33;105489;1289;60457;-77
2022/12/27 05:03:52;;;;;;;9.90;3.90;;;;;;;4.01;86.79;101271.88;105415;1285;73484;-77
2022/12/27 05:06:19;;;;;;;10.20;4.50;;;;;;;4.05;86.52;101267.20;105651;1293;71178;-77
2022/12/27 05:14:16;;;;;;;11.60;4.80;;;;;;;4.17;86.17;101272.42;105807;1283;59813;-78
2022/12/27 05:16:43;;;;;;;9.80;3.80;;;;;;;4.18;85.98;101268.29;105769;1285;76125;-76
2022/12/27 05:19:12;;;;;;;7.90;4.60;;;;;;;4.20;85.66;101269.52;105663;1290;71601;-76
2022/12/27 05:25:33;;;;;;;8.50;3.80;;;;;;;4.22;85.53;101262.87;105637;1292;71089;-76
2022/12/27 05:27:17;;;;;;;9.70;4.10;;;;;;;4.27;85.37;101268.45;105595;1292;59321;-76
2022/12/27 05:29:45;;;;;;;8.70;4.30;;;;;;;4.31;85.41;101270.95;105616;1287;73088;-76
2022/12/27 05:32:11;;;;;;;8.70;4.20;;;;;;;4.33;85.25;101279.00;105554;1287;69822;-75
2022/12/27 05:34:39;;;;;;;8.00;3.50;;;;;;;4.35;85.41;101278.58;105680;1290;73226;-76
2022/12/27 05:37:06;;;;;;;7.50;3.70;;;;;;;4.34;85.38;101275.61;105650;1283;60967;-76
2022/12/27 05:39:32;;;;;;;9.20;4.10;;;;;;;4.38;85.38;101277.98;105659;1284;59819;-76
2022/12/27 05:41:59;;;;;;;7.90;3.90;;;;;;;4.40;85.50;101277.60;105738;1290;59062;-75
2022/12/27 05:44:25;;;;;;;8.00;4.00;;;;;;;4.40;85.37;101280.91;105654;1292;59159;-76
2022/12/27 05:46:55;;;;;;;7.80;3.50;;;;;;;4.44;85.22;101288.70;105612;1291;72797;-77
2022/12/27 05:49:22;;;;;;;9.00;4.20;;;;;;;4.44;85.11;101295.48;105563;1294;59747;-76
2022/12/27 05:51:48;;;;;;;7.70;3.70;;;;;;;4.47;84.95;101306.67;105580;1292;58945;-76
2022/12/27 05:54:15;;;;;;;7.90;4.10;;;;;;;4.49;84.77;101301.79;105781;1291;59277;-76
2022/12/27 05:56:41;;;;;;;9.20;4.10;;;;;;;4.54;84.91;101313.67;105488;1287;72336;-76
2022/12/27 05:59:08;;;;;;;7.70;4.50;;;;;;;4.55;84.63;101320.09;105775;1291;59025;-76
2022/12/27 06:01:34;;;;;;;10.90;4.20;;;;;;;4.57;84.55;101316.61;105654;1291;59043;-76
2022/12/27 06:04:01;;;;;;;8.70;3.90;;;;;;;4.60;84.60;101314.61;105559;1285;58757;-76
2022/12/27 06:06:28;;;;;;;10.10;4.50;;;;;;;4.60;84.67;101311.77;105626;1292;73551;-76
2022/12/27 06:08:54;;;;;;;8.10;4.10;;;;;;;4.58;84.57;101314.95;105643;1293;59000;-76
2022/12/27 06:11:20;;;;;;;7.60;3.90;;;;;;;4.55;84.62;101318.48;105785;1291;59498;-76
2022/12/27 06:13:50;;;;;;;7.60;4.20;;;;;;;4.55;84.67;101320.45;105650;1291;59102;-76
2022/12/27 06:16:18;;;;;;;7.40;3.90;;;;;;;4.53;84.72;101327.27;105644;1287;58795;-76
2022/12/27 06:18:45;;;;;;;9.10;4.20;;;;;;;4.50;84.89;101323.63;105657;1285;74539;-76
2022/12/27 06:21:14;;;;;;;7.80;4.30;;;;;;;4.49;84.98;101325.23;105615;1290;69809;-75
2022/12/27 06:23:46;;;;;;;9.30;4.30;;;;;;;4.50;85.08;101336.89;105760;1290;72552;-76
2022/12/27 06:26:21;;;;;;;8.90;3.90;;;;;;;4.50;85.00;101339.19;105709;1291;59606;-75
2022/12/27 06:28:49;;;;;;;8.70;4.10;;;;;;;4.50;85.13;101334.30;105589;1292;59830;-75
2022/12/27 06:31:17;;;;;;;9.40;4.40;;;;;;;4.48;85.21;101337.90;105560;1292;73632;-76
2022/12/27 06:33:45;;;;;;;7.10;4.10;;;;;;;4.48;85.20;101334.38;105582;1293;69792;-77
2022/12/27 06:36:14;;;;;;;8.10;4.20;;;;;;;4.46;85.22;101343.00;105564;1294;72480;-76
2022/12/27 06:38:40;;;;;;;8.60;4.30;;;;;;;4.46;85.18;101347.16;105377;1292;213104;-75
2022/12/27 06:41:10;;;;;;;8.30;4.70;;;;;;;4.46;85.18;101346.11;105784;1291;59694;-75
2022/12/27 06:43:37;;;;;;;7.10;3.50;;;;;;;4.47;85.15;101348.00;105593;1294;72890;-76
2022/12/27 06:46:08;;;;;;;6.20;4.30;;;;;;;4.48;84.99;101348.11;105638;1293;70168;-76
2022/12/27 06:48:43;;;;;;;7.60;4.20;;;;;;;4.49;85.01;101359.78;105546;1284;71707;-79
2022/12/27 06:51:11;;;;;;;9.00;4.00;;;;;;;4.49;84.89;101357.48;105728;1291;61009;-75
2022/12/27 06:53:38;;;;;;;8.30;4.40;;;;;;;4.49;85.02;101343.67;105557;1291;60945;-76
2022/12/27 06:56:06;;;;;;;7.90;4.40;;;;;;;4.48;85.10;101353.33;105645;1290;74679;-75
2022/12/27 06:58:33;;;;;;;9.20;4.80;;;;;;;4.46;85.08;101354.02;105623;1291;70938;-75
2022/12/27 07:01:09;;;;;;;7.40;4.40;;;;;;;4.45;85.19;101356.23;105607;1287;59033;-76
2022/12/27 07:03:36;;;;;;;6.50;3.80;;;;;;;4.45;85.20;101367.58;105785;1290;59151;-76
2022/12/27 07:06:04;;;;;;;7.70;4.10;;;;;;;4.42;85.48;101379.52;105718;1292;59333;-76
2022/12/27 07:08:31;;;;;;;7.10;4.40;;;;;;;4.40;85.42;101381.32;105527;1284;73111;-76
2022/12/27 07:11:03;;;;;;;9.80;4.20;;;;;;;4.41;85.45;101379.10;105645;1287;68628;-77
2022/12/27 07:13:33;;;;;;;8.30;4.70;;;;;;;4.40;85.50;101384.77;105636;1290;72765;-77
2022/12/27 07:16:03;;;;;;;9.50;4.30;;;;;;;4.41;85.59;101381.23;105480;1292;61335;-76
2022/12/27 07:18:30;;;;;;;10.60;4.40;;;;;;;4.39;85.65;101388.02;105626;1291;60494;-76
2022/12/27 07:20:57;;;;;;;7.80;4.20;;;;;;;4.38;85.75;101381.61;105461;1291;73357;-76
2022/12/27 07:23:23;;;;;;;9.70;4.50;;;;;;;4.36;85.70;101383.88;105765;1292;70983;-76
2022/12/27 07:25:50;;;;;;;8.90;4.10;;;;;;;4.34;85.97;101389.11;105549;1287;70973;-76
2022/12/27 07:28:16;;;;;;;7.00;4.50;;;;;;;4.33;86.12;101399.34;105663;1284;59300;-76
2022/12/27 07:30:43;;;;;;;10.50;4.70;;;;;;;4.35;86.27;101391.33;105755;1292;59693;-76
2022/12/27 07:33:09;;;;;;;10.60;4.80;;;;;;;4.35;86.21;101403.02;105499;1294;59317;-76
2022/12/27 07:35:36;;;;;;;9.90;4.80;;;;;;;4.40;86.09;101409.14;105650;1290;59385;-76
2022/12/27 07:38:10;;;;;;;11.10;4.90;;;;;;;4.40;86.12;101414.88;105788;1292;70495;-76
2022/12/27 07:40:36;;;;;;;7.70;4.10;;;;;;;4.41;85.89;101418.30;105786;1291;59282;-75
2022/12/27 07:43:03;;;;;;;9.10;4.50;;;;;;;4.45;85.82;101429.55;105803;1291;59043;-77
2022/12/27 07:45:29;;;;;;;10.30;4.20;;;;;;;4.45;85.64;101443.21;105700;1291;59136;-74
2022/12/27 07:47:56;;;;;;;8.90;4.40;;;;;;;4.49;85.60;101439.81;105611;1294;71945;-76
2022/12/27 07:50:22;;;;;;;10.60;4.60;;;;;;;4.51;85.77;101444.04;105681;1298;59449;-76
2022/12/27 07:52:49;;;;;;;6.70;3.90;;;;;;;4.51;85.61;101444.38;105646;1291;59322;-77
2022/12/27 07:55:16;;;;;;;8.60;3.80;;;;;;;4.52;85.41;101445.18;105735;1286;58839;-76
2022/12/27 07:57:42;;;;;;;6.90;3.40;;;;;;;4.50;85.26;101452.54;105620;1292;59071;-76
2022/12/27 08:00:09;;;;;;;8.30;3.20;;;;;;;4.51;84.82;101459.78;105794;1291;58933;-76
2022/12/27 08:02:36;;;;;;;6.80;3.40;;;;;;;4.55;84.87;101455.64;105541;1291;71160;-76
2022/12/27 08:05:03;;;;;;;9.30;3.40;;;;;;;4.55;84.94;101461.60;105685;1291;58692;-75
2022/12/27 08:07:30;;;;;;;7.50;2.50;;;;;;;4.53;84.78;101457.38;105767;1284;59168;-76
2022/12/27 08:09:57;;;;;;;6.70;3.00;;;;;;;4.52;84.46;101462.57;105600;1288;72219;-76
2022/12/27 08:12:23;;;;;;;9.60;3.30;;;;;;;4.52;84.47;101469.18;105554;1293;72039;-76
2022/12/27 08:14:50;;;;;;;9.10;3.10;;;;;;;4.50;84.46;101474.79;105762;1292;59191;-76
2022/12/27 08:17:24;;;;;;;6.30;2.90;;;;;;;4.52;84.56;101471.50;105614;1291;60803;-77
2022/12/27 08:19:51;;;;;;;8.50;3.30;;;;;;;4.51;84.60;101478.70;105552;1288;60555;-76
2022/12/27 08:22:17;;;;;;;6.80;3.20;;;;;;;4.54;84.87;101477.99;105812;1291;75074;-76
2022/12/27 08:24:44;;;;;;;8.30;3.40;;;;;;;4.53;84.51;101494.03;105739;1290;69611;-76
2022/12/27 08:27:11;;;;;;;7.50;3.50;;;;;;;4.51;84.45;101488.71;105544;1294;71595;-76
2022/12/27 08:29:43;;;;;;;7.60;3.50;;;;;;;4.54;84.44;101487.10;105777;1284;60199;-76
2022/12/27 08:32:10;;;;;;;7.20;3.90;;;;;;;4.52;84.41;101496.89;105608;1291;59065;-76
2022/12/27 08:34:36;;;;;;;9.00;3.50;;;;;;;4.55;84.42;101497.18;105785;1292;58892;-76
2022/12/27 08:37:02;;;;;;;8.00;3.30;;;;;;;4.56;84.58;101506.53;105788;1290;59103;-76
2022/12/27 08:39:29;;;;;;;8.80;3.80;;;;;;;4.56;84.48;101516.57;105635;1291;59446;-76
2022/12/27 08:41:55;;;;;;;6.30;3.00;;;;;;;4.55;84.28;101520.30;105604;1290;58902;-76
2022/12/27 08:44:22;;;;;;;7.90;3.70;;;;;;;4.59;84.28;101512.44;105775;1291;58718;-76
2022/12/27 08:46:49;;;;;;;9.60;3.80;;;;;;;4.62;84.09;101521.71;105766;1292;73403;-76
2022/12/27 08:49:15;;;;;;;9.40;3.60;;;;;;;4.66;84.20;101521.02;105736;1284;58966;-75
2022/12/27 08:51:42;;;;;;;11.40;3.60;;;;;;;4.67;83.94;101536.04;105590;1287;58959;-76
2022/12/27 08:54:08;;;;;;;7.80;3.30;;;;;;;4.71;83.70;101524.33;105570;1295;58592;-76
2022/12/27 08:56:35;;;;;;;6.50;2.80;;;;;;;4.72;83.81;101531.10;105731;1290;58968;-75
2022/12/27 08:59:02;;;;;;;11.50;3.40;;;;;;;4.75;83.67;101537.13;105691;1288;73132;-76
2022/12/27 09:01:28;;;;;;;9.60;4.50;;;;;;;4.77;83.40;101539.51;105660;1287;69700;-76
2022/12/27 09:03:55;;;;;;;13.50;4.10;;;;;;;4.79;83.33;101537.20;105655;1298;71392;-76
2022/12/27 09:06:23;;;;;;;8.70;3.40;;;;;;;4.80;83.22;101541.49;105626;1300;60916;-76
2022/12/27 09:08:50;;;;;;;8.00;3.70;;;;;;;4.82;83.29;101548.35;105607;1292;59237;-75
2022/12/27 09:11:20;;;;;;;8.70;3.10;;;;;;;4.87;83.23;101539.96;105583;1294;73122;-77
2022/12/27 09:13:46;;;;;;;9.70;3.20;;;;;;;4.94;83.11;101548.52;105612;1293;70730;-76
2022/12/27 09:16:19;;;;;;;7.70;3.10;;;;;;;5.01;83.08;101546.59;105693;1292;72499;-73
2022/12/27 09:18:48;;;;;;;7.50;3.00;;;;;;;5.12;83.03;101541.20;105545;1294;60028;-73
2022/12/27 09:21:18;;;;;;;8.30;3.00;;;;;;;5.19;82.50;101547.48;105594;1298;59735;-73
2022/12/27 09:23:45;;;;;;;10.70;3.30;;;;;;;5.21;81.60;101542.08;105531;1292;73188;-72
2022/12/27 09:26:20;;;;;;;9.40;3.10;;;;;;;5.26;81.85;101547.84;105628;1279;72240;-72
2022/12/27 09:28:47;;;;;;;6.90;3.10;;;;;;;5.27;82.01;101542.29;105734;1285;72166;-72
2022/12/27 09:31:16;;;;;;;11.10;3.10;;;;;;;5.23;81.63;101555.06;105648;1284;59268;-73
2022/12/27 09:33:43;;;;;;;7.00;3.00;;;;;;;5.22;81.72;101546.38;105621;1294;60107;-73
2022/12/27 09:36:12;;;;;;;7.80;3.10;;;;;;;5.21;81.83;101553.11;105776;1291;74754;-72
2022/12/27 09:38:40;;;;;;;9.00;3.40;;;;;;;5.26;82.26;101555.67;105621;1293;69411;-72
2022/12/27 09:41:39;;;;;;;9.90;3.20;;;;;;;5.23;82.22;101564.91;105608;1295;71861;-72
2022/12/27 09:44:42;;;;;;;7.90;2.80;;;;;;;5.26;82.40;101566.91;105691;1290;60678;-73
2022/12/27 09:47:21;;;;;;;7.60;3.00;;;;;;;5.31;82.14;101569.19;105811;1292;58270;-73
2022/12/27 09:49:51;;;;;;;10.00;3.30;;;;;;;5.38;81.87;101569.03;105700;1298;73181;-73
2022/12/27 09:52:25;;;;;;;9.00;3.10;;;;;;;5.42;81.73;101570.79;105775;1291;70856;-73
2022/12/27 09:55:10;;;;;;;8.70;3.20;;;;;;;5.46;81.59;101578.92;105708;1287;71111;-72
2022/12/27 09:57:40;;;;;;;7.80;3.10;;;;;;;5.51;81.62;101574.48;105612;1293;60687;-73
2022/12/27 10:00:18;;;;;;;8.70;3.10;;;;;;;5.66;81.46;101580.48;105595;1292;59884;-73
2022/12/27 10:03:03;;;;;;;7.10;2.70;;;;;;;5.88;81.02;101584.58;105717;1292;74756;-73
2022/12/27 10:05:33;;;;;;;10.40;3.40;;;;;;;6.02;80.33;101580.77;105550;1294;71149;-73
2022/12/27 10:08:21;;;;;;;10.20;3.10;;;;;;;6.10;79.94;101584.19;105626;1295;72743;-72
2022/12/27 10:11:37;;;;;;;9.30;3.10;;;;;;;6.13;79.85;101590.09;105786;1289;61184;-72
2022/12/27 10:14:25;;;;;;;9.90;2.90;;;;;;;6.09;79.98;101587.13;105776;1275;59013;-72
2022/12/27 10:17:21;;;;;;;8.40;3.20;;;;;;;5.99;79.79;101594.42;105786;1292;73762;-72
2022/12/27 10:20:03;;;;;;;8.60;2.90;;;;;;;5.89;79.68;101597.45;105524;1293;70796;-73
2022/12/27 10:22:37;;;;;;;9.30;3.00;;;;;;;5.83;79.82;101597.56;105755;1292;71056;-71
2022/12/27 10:25:11;;;;;;;7.60;2.60;;;;;;;5.88;80.28;101590.00;105650;1291;60949;-72
2022/12/27 10:27:38;;;;;;;8.60;2.90;;;;;;;5.91;80.31;101588.87;105648;1291;60875;-72
2022/12/27 10:30:12;;;;;;;5.00;2.20;;;;;;;5.99;80.25;101583.69;105532;1289;72424;-72
2022/12/27 10:32:38;;;;;;;8.30;2.80;;;;;;;6.06;79.49;101591.02;105559;1294;69505;-72
2022/12/27 10:35:05;;;;;;;7.20;2.50;;;;;;;6.10;78.86;101588.04;105690;1298;58919;-72
2022/12/27 10:37:32;;;;;;;8.60;2.80;;;;;;;6.13;78.82;101590.81;105637;1295;59362;-72
2022/12/27 10:40:16;;;;;;;7.80;2.20;;;;;;;6.15;79.31;101593.11;105580;1295;60183;-72
2022/12/27 10:43:10;;;;;;;8.30;2.60;;;;;;;6.13;79.53;101592.23;105703;1294;74429;-72
2022/12/27 10:45:41;;;;;;;7.80;3.30;;;;;;;6.05;79.31;101593.03;105809;1291;69535;-72
2022/12/27 10:48:12;;;;;;;7.90;2.30;;;;;;;5.98;79.79;101595.69;105769;1292;71281;-72
2022/12/27 10:50:45;;;;;;;10.50;3.80;;;;;;;5.92;80.42;101597.74;105665;1293;60974;-72
2022/12/27 10:53:50;;;;;;;8.50;2.90;;;;;;;5.87;81.00;101598.13;105657;1290;60176;-72
2022/12/27 10:56:32;;;;;;;8.70;2.90;;;;;;;5.78;81.86;101601.09;105512;1291;72846;-72
2022/12/27 10:59:19;;;;;;;7.80;2.40;;;;;;;5.69;83.29;101621.65;105659;1292;70222;-73
2022/12/27 11:01:48;;;;;;;6.40;2.30;;;;;;;5.56;84.12;101608.64;105599;1294;73656;-72
2022/12/27 11:04:20;;;;;;;7.50;2.40;;;;;;;5.41;83.89;101612.46;105657;1290;61214;-72
2022/12/27 11:07:11;;;;;;;6.10;1.90;;;;;;;5.33;84.74;101616.17;105662;1285;59066;-72
2022/12/27 11:09:42;;;;;;;5.90;1.90;;;;;;;5.26;85.01;101616.20;105541;1299;73167;-72
2022/12/27 11:12:18;;;;;;;4.70;2.00;;;;;;;5.17;85.34;101612.36;104922;1292;71854;-72
2022/12/27 11:15:00;;;;;;;5.40;2.00;;;;;;;5.09;85.69;101613.10;105729;1285;71355;-72
2022/12/27 11:17:37;;;;;;;6.00;2.30;;;;;;;5.00;86.41;101611.35;105721;1292;60130;-73
2022/12/27 11:20:22;;;;;;;6.30;2.30;;;;;;;4.99;86.57;101609.48;105614;1297;59079;-73
2022/12/27 11:22:55;;;;;;;6.40;2.30;;;;;;;5.07;87.01;101604.15;105527;1298;73872;-72
2022/12/27 11:25:24;;;;;;;5.80;2.50;;;;;;;5.32;86.96;101600.83;105785;1288;69902;-72
2022/12/27 11:28:01;;;;;;;6.10;2.50;;;;;;;5.62;86.22;101609.41;105608;1295;72306;-72
2022/12/27 11:30:32;;;;;;;6.20;2.60;;;;;;;5.86;84.70;101601.67;105766;1292;60067;-73
2022/12/27 11:33:18;;;;;;;7.20;2.90;;;;;;;6.09;84.69;101591.11;105535;1290;59084;-72
2022/12/27 11:35:53;;;;;;;9.00;2.70;;;;;;;6.41;82.62;101601.19;105588;1294;73449;-72
2022/12/27 11:38:25;;;;;;;6.10;2.80;;;;;;;6.57;82.17;101601.65;105623;1291;70850;-72
2022/12/27 11:41:10;;;;;;;7.20;2.90;;;;;;;6.61;81.39;101602.55;105659;1290;72855;-72
2022/12/27 11:43:59;;;;;;;8.40;2.70;;;;;;;6.79;80.75;101603.89;105778;1292;59899;-72
2022/12/27 11:46:33;;;;;;;7.30;2.50;;;;;;;7.06;79.26;101601.56;105803;1290;59757;-72
2022/12/27 11:49:01;;;;;;;6.00;2.50;;;;;;;7.39;78.59;101597.24;105617;1291;73107;-72
2022/12/27 11:51:38;;;;;;;9.50;2.50;;;;;;;7.63;77.61;101595.31;105642;1295;71286;-72
2022/12/27 11:54:38;;;;;;;9.30;2.70;;;;;;;7.67;76.88;101596.52;105758;1281;72673;-72
2022/12/27 11:57:28;;;;;;;6.00;2.20;;;;;;;7.71;75.27;101603.24;105751;1292;59811;-72
2022/12/27 12:00:15;;;;;;;7.10;2.40;;;;;;;7.58;74.85;101608.77;105558;1284;60139;-72
2022/12/27 12:03:17;;;;;;;8.00;2.70;;;;;;;7.35;75.24;101609.20;105653;1292;73160;-72
2022/12/27 12:05:59;;;;;;;7.20;2.30;;;;;;;7.15;75.75;101604.56;105468;1294;68693;-72
2022/12/27 12:08:43;;;;;;;4.60;2.20;;;;;;;7.30;76.30;101609.08;105764;1284;70276;-72
2022/12/27 12:11:49;;;;;;;6.40;2.20;;;;;;;7.45;74.98;101610.30;105572;1300;58993;-73
2022/12/27 12:14:42;;;;;;;6.30;2.20;;;;;;;7.37;75.14;101608.30;105716;1292;60533;-72
2022/12/27 12:17:44;;;;;;;8.20;2.30;;;;;;;7.29;75.24;101605.79;105547;1295;74270;-73
2022/12/27 12:20:37;;;;;;;8.30;2.40;;;;;;;7.24;75.34;101614.16;105505;1297;70111;-72
2022/12/27 12:23:12;;;;;;;7.20;2.60;;;;;;;7.28;74.88;101612.73;105816;1284;72344;-72
2022/12/27 12:26:15;;;;;;;7.30;2.50;;;;;;;7.21;74.77;101618.95;105576;1293;60057;-72
2022/12/27 12:29:16;;;;;;;6.40;2.00;;;;;;;7.07;75.02;101628.77;105657;1290;58853;-72
2022/12/27 12:32:21;;;;;;;5.90;2.20;;;;;;;6.97;74.89;101632.63;105668;1295;73832;-72
2022/12/27 12:35:25;;;;;;;7.70;2.20;;;;;;;6.90;75.16;101631.26;105559;1293;68577;-72
2022/12/27 12:37:55;;;;;;;8.20;2.40;;;;;;;6.93;75.31;101626.97;105805;1290;71476;-72
2022/12/27 12:40:59;;;;;;;5.60;2.20;;;;;;;6.96;74.92;101635.18;105747;1292;60664;-72
2022/12/27 12:43:37;;;;;;;9.00;2.60;;;;;;;6.86;74.52;101635.66;105793;1291;59667;-72
2022/12/27 12:46:16;;;;;;;6.40;2.30;;;;;;;6.82;74.58;101631.77;105779;1292;74880;-73
2022/12/27 12:48:54;;;;;;;7.20;2.80;;;;;;;6.71;75.20;101627.54;105788;1291;71156;-72
2022/12/27 12:51:32;;;;;;;5.50;2.40;;;;;;;6.54;74.65;101631.61;105810;1290;71370;-72
2022/12/27 12:54:40;;;;;;;5.60;2.30;;;;;;;6.46;76.00;101630.98;105595;1293;60003;-72
2022/12/27 12:57:22;;;;;;;8.30;2.40;;;;;;;6.37;76.36;101629.30;105536;1300;59008;-72
2022/12/27 12:59:58;;;;;;;8.70;2.60;;;;;;;6.24;76.52;101629.94;105831;1291;74913;-72
2022/12/27 13:02:38;;;;;;;9.00;2.70;;;;;;;6.23;77.26;101626.86;105804;1291;68830;-72
2022/12/27 13:05:30;;;;;;;6.70;2.50;;;;;;;6.21;76.62;101627.63;105803;1292;72734;-72
2022/12/27 13:08:10;;;;;;;10.80;2.50;;;;;;;6.21;76.81;101627.80;105760;1287;59102;-72
2022/12/27 13:10:52;;;;;;;7.80;2.70;;;;;;;6.24;76.99;101619.05;105759;1292;59875;-72
2022/12/27 13:13:34;;;;;;;6.00;2.40;;;;;;;6.33;77.47;101612.19;105833;1291;74124;-72
2022/12/27 13:16:23;;;;;;;6.70;2.70;;;;;;;6.36;76.94;101623.22;105730;1290;71345;-72
2022/12/27 13:19:13;;;;;;;9.60;2.70;;;;;;;6.43;76.54;101604.20;105798;1292;72037;-72
2022/12/27 13:22:01;;;;;;;7.00;2.90;;;;;;;6.75;75.87;101597.52;105658;1290;59651;-72
2022/12/27 13:25:06;;;;;;;6.10;2.60;;;;;;;6.89;74.52;101598.42;105824;1292;60221;-72
2022/12/27 13:27:38;;;;;;;7.20;2.90;;;;;;;6.94;73.78;101597.38;105808;1292;72457;-72